createdAt,value
2019-05-11T00:00:44.299Z,69.13
2019-05-11T00:03:12.797Z,69.16
2019-05-11T00:05:41.285Z,69.38
2019-05-11T00:08:09.825Z,70.09
2019-05-11T00:10:38.334Z,69.95
2019-05-11T00:13:06.847Z,68.67
2019-05-11T00:15:35.642Z,68.73
2019-05-11T00:18:05.002Z,68.40
2019-05-11T00:20:33.523Z,68.70
2019-05-11T00:23:02.039Z,70.01
2019-05-11T00:25:30.564Z,71.03
2019-05-11T00:27:59.106Z,71.61
2019-05-11T00:30:27.605Z,71.79
2019-05-11T00:32:56.120Z,72.32
2019-05-11T00:35:24.592Z,72.49
2019-05-11T00:37:53.159Z,73.07
2019-05-11T00:40:21.790Z,73.55
2019-05-11T00:42:50.302Z,72.63
2019-05-11T00:45:19.085Z,71.91
2019-05-11T00:47:47.571Z,71.29
2019-05-11T00:50:16.238Z,71.05
2019-05-11T00:52:44.785Z,69.99
2019-05-11T00:55:13.470Z,69.03
2019-05-11T00:57:42.067Z,68.15
2019-05-11T01:00:11.193Z,67.91
2019-05-11T01:02:39.681Z,66.72
2019-05-11T01:05:09.025Z,67.28
2019-05-11T01:07:37.559Z,66.66
2019-05-11T01:10:21.811Z,66.82
2019-05-11T01:12:38.130Z,66.60
2019-05-11T01:15:06.988Z,66.16
2019-05-11T01:17:35.479Z,65.56
2019-05-11T01:20:06.829Z,65.81
2019-05-11T01:22:35.312Z,66.03
2019-05-11T01:25:04.671Z,66.22
2019-05-11T01:27:33.154Z,67.45
2019-05-11T01:30:01.668Z,67.02
2019-05-11T01:32:30.151Z,67.60
2019-05-11T01:34:58.844Z,67.52
2019-05-11T01:37:27.354Z,67.25
2019-05-11T01:39:55.846Z,66.59
2019-05-11T01:42:24.361Z,66.40
2019-05-11T01:44:52.854Z,67.49
2019-05-11T01:47:21.357Z,68.31
2019-05-11T01:49:49.835Z,69.73
2019-05-11T01:52:18.345Z,71.58
2019-05-11T01:54:46.816Z,73.50
2019-05-11T01:57:15.406Z,71.43
2019-05-11T01:59:43.883Z,72.10
2019-05-11T02:02:12.393Z,72.32
2019-05-11T02:04:41.206Z,72.89
2019-05-11T02:07:09.771Z,72.83
2019-05-11T02:09:38.265Z,73.75
2019-05-11T02:12:06.743Z,73.36
2019-05-11T02:14:35.248Z,73.55
2019-05-11T02:17:04.756Z,73.34
2019-05-11T02:19:33.265Z,73.36
2019-05-11T02:22:01.742Z,74.07
2019-05-11T02:24:30.378Z,73.45
2019-05-11T02:26:58.857Z,73.85
2019-05-11T02:29:27.363Z,73.13
2019-05-11T02:31:55.842Z,72.67
2019-05-11T02:34:24.352Z,73.84
2019-05-11T02:36:54.481Z,74.10
2019-05-11T02:39:22.973Z,73.73
2019-05-11T02:41:51.457Z,73.71
2019-05-11T02:44:19.960Z,73.14
2019-05-11T02:46:48.496Z,72.12
2019-05-11T02:49:17.051Z,71.21
2019-05-11T02:51:45.813Z,70.64
2019-05-11T02:54:14.730Z,73.02
2019-05-11T02:56:43.228Z,73.67
2019-05-11T02:59:11.787Z,74.33
2019-05-11T03:01:40.283Z,74.92
2019-05-11T03:04:08.808Z,76.01
2019-05-11T03:06:37.279Z,75.71
2019-05-11T03:09:06.582Z,75.55
2019-05-11T03:11:52.798Z,74.30
2019-05-11T03:14:05.488Z,73.05
2019-05-11T03:16:33.994Z,72.25
2019-05-11T03:19:02.486Z,72.12
2019-05-11T03:21:31.056Z,71.71
2019-05-11T03:23:59.582Z,70.86
2019-05-11T03:26:28.064Z,70.58
2019-05-11T03:28:56.587Z,70.42
2019-05-11T03:31:25.097Z,70.91
2019-05-11T03:33:53.855Z,71.10
2019-05-11T03:36:22.361Z,73.12
2019-05-11T03:38:50.885Z,73.11
2019-05-11T03:41:19.399Z,73.37
2019-05-11T03:43:47.926Z,72.68
2019-05-11T03:46:16.423Z,71.88
2019-05-11T03:48:44.932Z,71.33
2019-05-11T03:51:13.429Z,71.05
2019-05-11T03:53:41.932Z,70.19
2019-05-11T03:56:10.496Z,70.01
2019-05-11T03:58:39.005Z,69.61
2019-05-11T04:01:07.494Z,69.77
2019-05-11T04:03:36.008Z,69.23
2019-05-11T04:06:04.765Z,69.89
2019-05-11T04:08:33.261Z,69.27
2019-05-11T04:11:01.746Z,69.70
2019-05-11T04:13:30.225Z,68.77
2019-05-11T04:15:58.745Z,68.23
2019-05-11T04:18:27.215Z,67.51
2019-05-11T04:20:55.706Z,66.34
2019-05-11T04:23:24.193Z,64.72
2019-05-11T04:25:52.691Z,63.78
2019-05-11T04:28:21.175Z,65.22
2019-05-11T04:30:49.678Z,67.20
2019-05-11T04:33:18.172Z,65.80
2019-05-11T04:35:46.674Z,64.30
2019-05-11T04:38:15.163Z,63.66
2019-05-11T04:40:43.690Z,64.26
2019-05-11T04:43:12.177Z,63.62
2019-05-11T04:45:40.709Z,63.30
2019-05-11T04:48:09.258Z,62.63
2019-05-11T04:50:37.772Z,61.85
2019-05-11T04:53:06.293Z,63.05
2019-05-11T04:55:34.779Z,62.66
2019-05-11T04:58:03.288Z,62.79
2019-05-11T05:00:31.842Z,62.70
2019-05-11T05:03:00.341Z,61.50
2019-05-11T05:05:28.854Z,60.40
2019-05-11T05:08:09.186Z,60.25
2019-05-11T05:10:27.594Z,61.40
2019-05-11T05:13:09.716Z,62.49
2019-05-11T05:15:27.524Z,61.56
2019-05-11T05:17:56.044Z,61.67
2019-05-11T05:20:24.532Z,61.12
2019-05-11T05:22:53.091Z,62.18
2019-05-11T05:25:21.626Z,61.44
2019-05-11T05:27:50.114Z,61.10
2019-05-11T05:31:13.200Z,59.13
2019-05-11T05:33:41.682Z,58.35
2019-05-11T05:36:10.259Z,60.37
2019-05-11T05:38:38.773Z,58.31
2019-05-11T05:41:09.141Z,58.26
2019-05-11T05:43:37.665Z,57.48
2019-05-11T05:46:06.175Z,57.29
2019-05-11T05:48:34.652Z,56.95
2019-05-11T05:51:03.239Z,58.89
2019-05-11T05:53:31.730Z,60.83
2019-05-11T05:56:00.310Z,58.81
2019-05-11T05:58:28.784Z,56.90
2019-05-11T06:00:57.364Z,55.84
2019-05-11T06:03:25.832Z,54.63
2019-05-11T06:05:54.394Z,54.65
2019-05-11T06:08:22.880Z,53.72
2019-05-11T06:10:51.389Z,54.70
2019-05-11T06:13:19.940Z,58.61
2019-05-11T06:15:48.490Z,60.88
2019-05-11T06:18:17.062Z,60.48
2019-05-11T06:20:46.542Z,60.69
2019-05-11T06:23:15.053Z,60.89
2019-05-11T06:25:43.536Z,60.09
2019-05-11T06:28:12.133Z,57.47
2019-05-11T06:30:40.690Z,55.13
2019-05-11T06:33:09.199Z,54.04
2019-05-11T06:35:37.683Z,52.54
2019-05-11T06:38:06.167Z,56.49
2019-05-11T06:40:34.695Z,57.35
2019-05-11T06:43:03.186Z,56.73
2019-05-11T06:45:31.778Z,55.27
2019-05-11T06:48:00.264Z,55.07
2019-05-11T06:50:28.768Z,56.27
2019-05-11T06:52:57.390Z,54.35
2019-05-11T06:55:25.914Z,53.37
2019-05-11T06:57:54.456Z,52.87
2019-05-11T07:00:23.263Z,52.30
2019-05-11T07:02:51.749Z,51.10
2019-05-11T07:05:20.283Z,52.49
2019-05-11T07:07:48.801Z,53.53
2019-05-11T07:10:17.423Z,57.16
2019-05-11T07:12:45.905Z,55.42
2019-05-11T07:15:14.492Z,56.83
2019-05-11T07:17:42.974Z,56.47
2019-05-11T07:20:11.854Z,54.08
2019-05-11T07:22:40.336Z,51.48
2019-05-11T07:25:09.188Z,54.20
2019-05-11T07:27:37.702Z,54.19
2019-05-11T07:30:07.502Z,50.51
2019-05-11T07:32:38.095Z,52.06
2019-05-11T07:35:08.470Z,52.48
2019-05-11T07:37:38.527Z,54.17
2019-05-11T07:40:08.553Z,48.99
2019-05-11T07:42:38.042Z,46.65
2019-05-11T07:45:09.112Z,46.85
2019-05-11T07:47:38.150Z,44.37
2019-05-11T07:50:08.548Z,46.39
2019-05-11T07:52:37.835Z,47.77
2019-05-11T07:55:08.762Z,45.14
2019-05-11T07:57:39.139Z,45.09
2019-05-11T08:00:08.241Z,45.01
2019-05-11T08:02:38.686Z,44.62
2019-05-11T08:05:08.688Z,47.26
2019-05-11T08:07:37.921Z,42.93
2019-05-11T08:10:08.443Z,43.53
2019-05-11T08:12:39.180Z,42.27
2019-05-11T08:15:12.513Z,43.99
2019-05-11T08:17:38.253Z,39.03
2019-05-11T08:20:08.587Z,39.03
2019-05-11T08:22:37.833Z,38.66
2019-05-11T08:25:09.266Z,37.39
2019-05-11T08:27:37.910Z,36.70
2019-05-11T08:30:09.589Z,36.74
2019-05-11T08:32:38.760Z,36.97
2019-05-11T08:35:08.687Z,37.29
2019-05-11T08:37:38.816Z,38.31
2019-05-11T08:40:11.648Z,37.28
2019-05-11T08:42:40.135Z,34.62
2019-05-11T08:45:19.489Z,35.33
2019-05-11T08:47:39.119Z,36.33
2019-05-11T08:50:08.290Z,35.53
2019-05-11T08:52:38.726Z,35.01
2019-05-11T08:55:08.375Z,34.53
2019-05-11T08:57:38.739Z,35.92
2019-05-11T09:00:10.284Z,35.32
2019-05-11T09:02:38.409Z,35.49
2019-05-11T09:05:08.288Z,34.81
2019-05-11T09:07:38.462Z,33.34
2019-05-11T09:10:08.411Z,35.27
2019-05-11T09:12:38.236Z,34.28
2019-05-11T09:15:08.763Z,34.47
2019-05-11T09:17:38.188Z,33.36
2019-05-11T09:20:08.737Z,35.20
2019-05-11T09:22:38.087Z,34.40
2019-05-11T09:25:08.968Z,36.11
2019-05-11T09:27:37.777Z,33.68
2019-05-11T09:30:08.473Z,30.43
2019-05-11T09:32:38.519Z,32.17
2019-05-11T09:35:08.439Z,31.35
2019-05-11T09:37:38.106Z,27.01
2019-05-11T09:40:07.998Z,26.94
2019-05-11T09:42:38.644Z,28.75
2019-05-11T09:45:08.199Z,31.00
2019-05-11T09:47:38.633Z,27.98
2019-05-11T09:50:08.708Z,29.38
2019-05-11T09:52:38.478Z,28.73
2019-05-11T09:55:08.896Z,30.65
2019-05-11T09:57:38.155Z,28.77
2019-05-11T10:00:08.982Z,33.24
2019-05-11T10:02:38.482Z,29.92
2019-05-11T10:05:08.429Z,28.26
2019-05-11T10:07:38.078Z,28.93
2019-05-11T10:10:09.151Z,29.46
2019-05-11T10:12:38.182Z,29.69
2019-05-11T10:15:08.691Z,28.63
2019-05-11T10:17:38.305Z,27.14
2019-05-11T10:20:09.339Z,25.01
2019-05-11T10:22:38.575Z,27.95
2019-05-11T10:25:09.141Z,23.96
2019-05-11T10:27:38.467Z,26.21
2019-05-11T10:30:11.183Z,29.21
2019-05-11T10:32:40.565Z,27.79
2019-05-11T10:35:09.487Z,23.95
2019-05-11T10:37:38.935Z,23.83
2019-05-11T10:40:09.807Z,24.42
2019-05-11T10:42:38.317Z,24.64
2019-05-11T10:45:09.030Z,23.95
2019-05-11T10:47:38.329Z,23.84
2019-05-11T10:50:08.878Z,25.94
2019-05-11T10:52:38.017Z,27.15
2019-05-11T10:55:08.777Z,24.95
2019-05-11T10:57:38.632Z,24.90
2019-05-11T11:00:11.399Z,24.86
2019-05-11T11:02:39.885Z,23.53
2019-05-11T11:05:09.066Z,23.89
2019-05-11T11:07:38.328Z,24.42
2019-05-11T11:10:08.828Z,23.43
2019-05-11T11:12:38.518Z,22.69
2019-05-11T11:15:08.493Z,22.84
2019-05-11T11:17:38.167Z,23.76
2019-05-11T11:20:08.874Z,23.83
2019-05-11T11:22:42.999Z,25.34
2019-05-11T11:25:09.391Z,23.73
2019-05-11T11:27:38.937Z,23.49
2019-05-11T11:30:09.292Z,24.67
2019-05-11T11:32:38.410Z,23.78
2019-05-11T11:35:08.552Z,24.35
2019-05-11T11:37:38.752Z,26.01
2019-05-11T11:40:11.324Z,26.34
2019-05-11T11:42:39.822Z,25.85
2019-05-11T11:45:10.343Z,25.92
2019-05-11T11:47:38.871Z,25.86
2019-05-11T11:50:09.079Z,23.55
2019-05-11T11:52:38.339Z,26.56
2019-05-11T11:55:08.558Z,26.97
2019-05-11T11:57:38.200Z,29.42
2019-05-11T12:00:09.149Z,31.93
2019-05-11T12:02:38.814Z,26.59
2019-05-11T12:05:08.984Z,27.17
2019-05-11T12:07:38.693Z,26.63
2019-05-11T12:10:09.122Z,23.31
2019-05-11T12:12:38.640Z,23.51
2019-05-11T12:15:08.849Z,26.03
2019-05-11T12:17:37.841Z,24.52
2019-05-11T12:20:08.925Z,25.63
2019-05-11T12:22:38.622Z,24.71
2019-05-11T12:25:08.263Z,24.00
2019-05-11T12:27:38.412Z,24.07
2019-05-11T12:30:09.217Z,25.16
2019-05-11T12:32:39.346Z,25.34
2019-05-11T12:35:08.722Z,24.54
2019-05-11T12:37:37.733Z,24.94
2019-05-11T12:40:08.393Z,24.44
2019-05-11T12:42:37.967Z,24.47
2019-05-11T12:45:08.490Z,24.51
2019-05-11T12:47:38.491Z,25.01
2019-05-11T12:50:09.448Z,28.99
2019-05-11T12:52:38.402Z,29.19
2019-05-11T12:55:08.934Z,28.78
2019-05-11T12:57:38.637Z,28.18
2019-05-11T13:00:08.758Z,27.16
2019-05-11T13:02:38.854Z,24.87
2019-05-11T13:05:08.664Z,26.89
2019-05-11T13:07:39.300Z,25.99
2019-05-11T13:10:08.724Z,26.94
2019-05-11T13:12:38.577Z,24.80
2019-05-11T13:15:08.409Z,25.82
2019-05-11T13:17:40.565Z,26.25
2019-05-11T13:20:08.703Z,27.82
2019-05-11T13:22:38.259Z,28.51
2019-05-11T13:25:08.622Z,30.55
2019-05-11T13:27:38.717Z,31.34
2019-05-11T13:30:10.722Z,31.59
2019-05-11T13:32:39.240Z,31.66
2019-05-11T13:35:09.097Z,31.40
2019-05-11T13:37:38.648Z,30.76
2019-05-11T13:40:08.203Z,30.33
2019-05-11T13:42:38.577Z,31.53
2019-05-11T13:45:08.660Z,30.18
2019-05-11T13:47:49.311Z,29.75
2019-05-11T13:50:08.283Z,30.67
2019-05-11T13:52:38.573Z,30.72
2019-05-11T13:55:08.110Z,32.59
2019-05-11T13:57:38.077Z,29.86
2019-05-11T14:00:08.660Z,31.10
2019-05-11T14:02:37.942Z,30.70
2019-05-11T14:05:10.216Z,30.97
2019-05-11T14:07:38.782Z,30.84
2019-05-11T14:10:08.342Z,31.08
2019-05-11T14:12:38.512Z,30.30
2019-05-11T14:15:08.615Z,30.65
2019-05-11T14:17:38.116Z,29.87
2019-05-11T14:20:09.109Z,30.71
2019-05-11T14:22:38.765Z,32.10
2019-05-11T14:25:08.144Z,32.80
2019-05-11T14:27:39.003Z,31.93
2019-05-11T14:30:08.637Z,32.82
2019-05-11T14:32:38.823Z,29.78
2019-05-11T14:35:12.139Z,28.42
2019-05-11T14:37:38.246Z,28.38
2019-05-11T14:40:08.744Z,27.90
2019-05-11T14:42:38.250Z,29.20
2019-05-11T14:45:08.446Z,28.41
2019-05-11T14:47:38.708Z,29.26
2019-05-11T14:50:08.617Z,29.28
2019-05-11T14:52:38.829Z,29.57
2019-05-11T14:55:08.273Z,30.54
2019-05-11T14:57:39.393Z,29.53
2019-05-11T15:00:09.033Z,29.30
2019-05-11T15:02:49.309Z,28.37
2019-05-11T15:05:20.792Z,28.55
2019-05-11T15:07:52.426Z,29.77
2019-05-11T15:10:20.095Z,30.29
2019-05-11T15:12:49.043Z,31.78
2019-05-11T15:15:18.893Z,32.03
2019-05-11T15:17:49.306Z,31.58
2019-05-11T15:20:18.084Z,32.17
2019-05-11T15:22:48.659Z,32.05
2019-05-11T15:25:19.381Z,31.75
2019-05-11T15:27:48.712Z,30.20
2019-05-11T15:30:18.484Z,30.73
2019-05-11T15:32:48.132Z,31.63
2019-05-11T15:35:18.643Z,30.94
2019-05-11T15:37:49.085Z,30.85
2019-05-11T15:40:19.016Z,30.96
2019-05-11T15:42:48.639Z,31.95
2019-05-11T15:45:18.814Z,31.86
2019-05-11T15:47:48.770Z,33.08
2019-05-11T15:50:19.128Z,32.66
2019-05-11T15:52:48.817Z,32.58
2019-05-11T15:55:19.047Z,33.38
2019-05-11T15:57:48.281Z,33.43
2019-05-11T16:00:18.176Z,33.81
2019-05-11T16:02:49.045Z,33.39
2019-05-11T16:05:19.372Z,34.32
2019-05-11T16:07:49.139Z,34.88
2019-05-11T16:10:19.688Z,34.75
2019-05-11T16:12:48.772Z,35.07
2019-05-11T16:15:19.458Z,36.17
2019-05-11T16:17:48.864Z,36.37
2019-05-11T16:20:18.327Z,36.45
2019-05-11T16:22:48.006Z,37.18
2019-05-11T16:25:19.295Z,37.35
2019-05-11T16:27:47.233Z,38.17
2019-05-11T16:30:20.850Z,37.56
2019-05-11T16:32:48.104Z,38.24
2019-05-11T16:35:17.958Z,39.20
2019-05-11T16:37:48.597Z,38.57
2019-05-11T16:40:20.105Z,38.96
2019-05-11T16:42:47.977Z,39.01
2019-05-11T16:45:18.974Z,39.43
2019-05-11T16:47:48.297Z,39.29
2019-05-11T16:50:18.092Z,40.10
2019-05-11T16:52:48.249Z,39.24
2019-05-11T16:55:18.374Z,39.21
2019-05-11T16:57:48.902Z,38.67
2019-05-11T17:00:17.806Z,38.38
2019-05-11T17:02:48.701Z,39.21
2019-05-11T17:05:25.820Z,38.39
2019-05-11T17:07:48.547Z,39.84
2019-05-11T17:10:17.901Z,40.08
2019-05-11T17:12:48.492Z,39.13
2019-05-11T17:15:18.691Z,39.04
2019-05-11T17:17:48.625Z,38.51
2019-05-11T17:20:18.692Z,39.13
2019-05-11T17:22:49.267Z,38.72
2019-05-11T17:25:19.188Z,38.90
2019-05-11T17:27:48.846Z,39.47
2019-05-11T17:30:19.383Z,39.96
2019-05-11T17:32:49.156Z,39.05
2019-05-11T17:35:18.545Z,39.48
2019-05-11T17:37:48.572Z,40.12
2019-05-11T17:40:20.804Z,40.36
2019-05-11T17:42:48.391Z,40.86
2019-05-11T17:45:18.985Z,40.31
2019-05-11T17:47:47.479Z,40.74
2019-05-11T17:50:16.108Z,41.35
2019-05-11T17:52:44.596Z,41.97
2019-05-11T17:55:13.227Z,41.36
2019-05-11T17:57:42.099Z,42.03
2019-05-11T18:00:11.108Z,42.03
2019-05-11T18:02:39.615Z,42.31
2019-05-11T18:05:09.120Z,42.14
2019-05-11T18:07:38.618Z,41.96
2019-05-11T18:10:08.311Z,41.76
2019-05-11T18:12:39.039Z,41.33
2019-05-11T18:15:09.358Z,41.45
2019-05-11T18:17:37.890Z,42.26
2019-05-11T18:20:16.831Z,42.57
2019-05-11T18:22:39.224Z,43.03
2019-05-11T18:25:08.972Z,43.12
2019-05-11T18:27:38.661Z,43.53
2019-05-11T18:30:09.388Z,44.12
2019-05-11T18:32:39.640Z,45.40
2019-05-11T18:35:09.136Z,43.79
2019-05-11T18:37:38.883Z,45.61
2019-05-11T18:40:08.182Z,44.36
2019-05-11T18:42:38.244Z,47.57
2019-05-11T18:45:08.254Z,47.87
2019-05-11T18:47:38.175Z,49.13
2019-05-11T18:50:07.513Z,49.63
2019-05-11T18:52:36.088Z,49.13
2019-05-11T18:55:08.432Z,48.83
2019-05-11T18:57:38.398Z,49.48
2019-05-11T19:00:09.131Z,50.33
2019-05-11T19:02:38.481Z,50.11
2019-05-11T19:05:07.473Z,50.19
2019-05-11T19:07:35.968Z,50.49
2019-05-11T19:10:08.490Z,49.59
2019-05-11T19:12:37.673Z,49.79
2019-05-11T19:15:08.819Z,50.09
2019-05-11T19:17:38.607Z,50.01
2019-05-11T19:20:08.497Z,52.41
2019-05-11T19:22:37.860Z,51.99
2019-05-11T19:25:10.186Z,51.51
2019-05-11T19:27:38.748Z,51.18
2019-05-11T19:30:08.612Z,51.60
2019-05-11T19:32:38.361Z,51.65
2019-05-11T19:35:09.071Z,51.32
2019-05-11T19:37:38.967Z,50.96
2019-05-11T19:40:09.452Z,53.20
2019-05-11T19:42:54.439Z,53.59
2019-05-11T19:45:23.317Z,54.89
2019-05-11T19:47:51.887Z,56.29
2019-05-11T19:50:20.378Z,56.35
2019-05-11T19:52:48.970Z,57.31
2019-05-11T19:55:18.155Z,57.13
2019-05-11T19:57:48.329Z,55.51
2019-05-11T20:00:18.367Z,55.93
2019-05-11T20:02:47.311Z,55.75
2019-05-11T20:05:18.167Z,55.45
2019-05-11T20:07:48.270Z,54.25
2019-05-11T20:10:18.544Z,53.40
2019-05-11T20:12:48.306Z,53.52
2019-05-11T20:15:18.843Z,53.32
2019-05-11T20:17:48.664Z,53.08
2019-05-11T20:20:18.338Z,52.79
2019-05-11T20:22:48.930Z,54.63
2019-05-11T20:25:18.669Z,54.20
2019-05-11T20:27:48.615Z,53.85
2019-05-11T20:30:18.365Z,54.76
2019-05-11T20:32:48.805Z,54.58
2019-05-11T20:35:17.861Z,54.25
2019-05-11T20:37:46.408Z,54.07
2019-05-11T20:40:15.214Z,51.72
2019-05-11T20:42:43.783Z,51.53
2019-05-11T20:45:12.547Z,53.67
2019-05-11T20:47:43.146Z,56.30
2019-05-11T20:50:11.898Z,57.56
2019-05-11T20:52:42.030Z,57.33
2019-05-11T20:55:10.829Z,59.71
2019-05-11T20:57:39.715Z,58.91
2019-05-11T21:00:10.969Z,59.69
2019-05-11T21:02:39.667Z,57.92
2019-05-11T21:05:09.367Z,57.14
2019-05-11T21:07:38.833Z,57.73
2019-05-11T21:10:08.747Z,55.72
2019-05-11T21:12:38.637Z,56.57
2019-05-11T21:15:08.973Z,57.68
2019-05-11T21:17:37.471Z,57.45
2019-05-11T21:20:10.489Z,57.36
2019-05-11T21:22:40.673Z,56.74
2019-05-11T21:25:10.399Z,56.60
2019-05-11T21:27:38.991Z,56.63
2019-05-11T21:30:11.072Z,56.07
2019-05-11T21:32:42.570Z,55.67
2019-05-11T21:35:11.307Z,55.83
2019-05-11T21:37:39.815Z,56.07
2019-05-11T21:40:10.261Z,57.51
2019-05-11T21:42:39.366Z,57.12
2019-05-11T21:45:09.769Z,56.71
2019-05-11T21:47:39.318Z,56.11
2019-05-11T21:50:09.908Z,56.99
2019-05-11T21:52:39.074Z,57.61
2019-05-11T21:55:09.668Z,58.35
2019-05-11T21:57:38.397Z,58.86
2019-05-11T22:00:09.443Z,59.88
2019-05-11T22:02:38.727Z,62.88
2019-05-11T22:05:08.499Z,62.48
2019-05-11T22:07:38.822Z,60.71
2019-05-11T22:10:09.157Z,60.24
2019-05-11T22:12:38.796Z,59.11
2019-05-11T22:15:10.181Z,60.54
2019-05-11T22:17:39.669Z,61.93
2019-05-11T22:20:09.156Z,60.92
2019-05-11T22:22:39.096Z,59.82
2019-05-11T22:25:09.158Z,60.49
2019-05-11T22:27:38.704Z,62.10
2019-05-11T22:30:12.059Z,61.68
2019-05-11T22:32:40.580Z,60.47
2019-05-11T22:35:09.468Z,60.51
2019-05-11T22:37:39.044Z,61.00
2019-05-11T22:40:09.638Z,61.49
2019-05-11T22:42:38.399Z,61.56
2019-05-11T22:45:08.435Z,61.98
2019-05-11T22:47:39.325Z,61.80
2019-05-11T22:50:10.221Z,61.34
2019-05-11T22:52:40.382Z,61.49
2019-05-11T22:55:11.961Z,61.38
2019-05-11T22:57:40.881Z,61.81
2019-05-11T23:00:10.818Z,62.05
2019-05-11T23:02:39.312Z,61.76
2019-05-11T23:05:08.837Z,61.93
2019-05-11T23:07:41.173Z,63.02
2019-05-11T23:10:10.023Z,63.41
2019-05-11T23:12:38.892Z,63.84
2019-05-11T23:15:14.799Z,63.08
2019-05-11T23:17:43.376Z,62.94
2019-05-11T23:20:12.345Z,62.16
2019-05-11T23:22:57.380Z,62.05
2019-05-11T23:25:20.295Z,62.40
2019-05-11T23:27:49.130Z,63.06
2019-05-11T23:30:20.293Z,63.17
2019-05-11T23:32:49.708Z,63.73
2019-05-11T23:35:19.078Z,63.95
2019-05-11T23:37:49.526Z,63.57
2019-05-11T23:40:18.698Z,63.93
2019-05-11T23:42:48.971Z,63.40
2019-05-11T23:45:18.870Z,62.77
2019-05-11T23:47:48.966Z,62.37
2019-05-11T23:50:19.166Z,63.08
2019-05-11T23:52:53.303Z,63.04
2019-05-11T23:55:19.214Z,62.93
2019-05-11T23:57:48.775Z,62.95
